Farmington, California
Current Conditions -  °F | °C
As of 7:55 AM on Saturday 25 Oct 2014 (Local Time) from KSCK Reporting Station
Broken Clouds Broken Clouds  
Wind Chill: 61°   Ceiling: 4800
Heat Index: 61°   Visibility: 10mi
Dew Point: 53°   Wind: 8mph
Humidity: 75%   Direction: 140°SE
Pressure: 29.97"   Gusts: NA
Location:  37.93°N, 121°W
Report Text: KSCK 251455Z 14007KT 10SM BKN048 16/12 A2997 RMK AO2 SLP149 T01610117 53017
Loading
Personal Weather Stations






























Interactive Weather Map
Tropical Storm Tracking
New forecast layout! Learn more

10-Day Weather Forecast

Advertisements
Track Severe Weather on mobile